createdAt,value
2022-11-06T00:01:37.271Z,8.3
2022-11-06T00:07:30.319Z,8.2
2022-11-06T00:13:21.613Z,8.2
2022-11-06T00:19:11.783Z,8.3
2022-11-06T00:25:04.295Z,8.1
2022-11-06T00:30:57.977Z,8.2
2022-11-06T00:36:51.336Z,8.1
2022-11-06T00:42:41.866Z,8.2
2022-11-06T00:48:32.590Z,8.1
2022-11-06T00:54:22.846Z,8.3
2022-11-06T01:00:14.243Z,8.1
2022-11-06T01:06:05.865Z,8.1
2022-11-06T01:12:12.685Z,8.1
2022-11-06T01:18:03.509Z,8.1
2022-11-06T01:23:56.147Z,8
2022-11-06T01:29:46.146Z,8.1
2022-11-06T01:35:38.769Z,8.1
2022-11-06T01:41:31.939Z,8.2
2022-11-06T01:47:22.835Z,8.1
2022-11-06T01:53:16.469Z,8.1
2022-11-06T01:59:09.305Z,8.1
2022-11-06T02:05:00.756Z,8.1
2022-11-06T02:10:53.975Z,8.1
2022-11-06T02:16:44.458Z,8
2022-11-06T02:22:36.173Z,8
2022-11-06T02:28:26.835Z,8.1
2022-11-06T02:34:17.570Z,8
2022-11-06T02:40:08.238Z,8
2022-11-06T02:45:58.187Z,8
2022-11-06T02:51:49.020Z,8
2022-11-06T02:57:40.539Z,8
2022-11-06T03:03:33.111Z,8
2022-11-06T03:09:24.842Z,7.9
2022-11-06T03:15:15.897Z,8
2022-11-06T03:21:07.738Z,7.9
2022-11-06T03:26:59.261Z,7.9
2022-11-06T03:32:51.187Z,7.9
2022-11-06T03:38:42.760Z,7.9
2022-11-06T03:44:36.062Z,8
2022-11-06T03:50:28.943Z,7.9
2022-11-06T03:56:19.774Z,7.9
2022-11-06T04:02:11.063Z,7.9
2022-11-06T04:08:02.357Z,8
2022-11-06T04:13:55.202Z,8.1
2022-11-06T04:19:47.457Z,8
2022-11-06T04:25:40.417Z,8
2022-11-06T04:31:32.138Z,8.1
2022-11-06T04:37:22.973Z,8.1
2022-11-06T04:43:13.921Z,8
2022-11-06T04:49:03.978Z,8
2022-11-06T04:54:53.528Z,8.1
2022-11-06T05:00:42.641Z,8.1
2022-11-06T05:06:35.222Z,8.1
2022-11-06T05:12:26.531Z,8.1
2022-11-06T05:18:18.031Z,8.2
2022-11-06T05:24:12.786Z,8.2
2022-11-06T05:30:05.829Z,8.3
2022-11-06T05:35:58.039Z,8.3
2022-11-06T05:41:48.371Z,8.3
2022-11-06T05:47:40.241Z,8.3
2022-11-06T05:53:35.157Z,8.3
2022-11-06T05:59:26.626Z,8.2
2022-11-06T06:05:18.206Z,8.2
2022-11-06T06:11:10.679Z,8.2
2022-11-06T06:17:02.143Z,8.2
2022-11-06T06:22:53.648Z,8.2
2022-11-06T06:28:45.705Z,8.1
2022-11-06T06:34:37.874Z,8.1
2022-11-06T06:41:03.597Z,8.1
2022-11-06T06:47:22.472Z,8.1
2022-11-06T07:00:03.578Z,8.1
2022-11-06T07:06:00.541Z,8.1
2022-11-06T07:11:59.082Z,8.1
2022-11-06T07:18:02.802Z,8.1
2022-11-06T07:24:06.316Z,8.1
2022-11-06T07:42:26.983Z,8.2
2022-11-06T07:48:28.779Z,8.2
2022-11-06T07:54:27.281Z,8.3
2022-11-06T08:07:05.739Z,8.4
2022-11-06T08:13:30.153Z,8.5
2022-11-06T08:51:26.052Z,8.9
2022-11-06T08:57:21.636Z,8.9
2022-11-06T09:03:39.558Z,9
2022-11-06T09:09:34.590Z,9
2022-11-06T09:15:26.981Z,9.1
2022-11-06T09:21:28.719Z,9.2
2022-11-06T09:27:38.298Z,9.3
2022-11-06T09:33:32.999Z,9.5
2022-11-06T09:39:31.044Z,9.6
2022-11-06T09:51:52.902Z,9.6
2022-11-06T09:58:00.911Z,9.6
2022-11-06T10:03:53.824Z,9.6
2022-11-06T10:09:45.961Z,9.7
2022-11-06T10:15:40.404Z,9.8
2022-11-06T10:21:31.296Z,9.8
2022-11-06T10:27:22.081Z,9.9
2022-11-06T10:33:13.694Z,10
2022-11-06T10:45:47.740Z,10.3
2022-11-06T10:51:51.045Z,10.4
2022-11-06T10:57:42.865Z,10.5
2022-11-06T11:04:42.732Z,10.5
2022-11-06T11:10:32.449Z,10.6
2022-11-06T11:16:23.826Z,10.7
2022-11-06T11:22:15.014Z,10.8
2022-11-06T11:28:05.403Z,10.8
2022-11-06T11:33:57.796Z,10.9
2022-11-06T11:39:48.686Z,11
2022-11-06T11:45:39.846Z,11.2
2022-11-06T11:51:28.580Z,11.3
2022-11-06T11:57:19.891Z,11.4
2022-11-06T12:03:09.706Z,11.4
2022-11-06T12:09:01.967Z,11.5
2022-11-06T12:14:53.327Z,11.6
2022-11-06T12:20:57.746Z,11.5
2022-11-06T12:26:53.325Z,11.5
2022-11-06T12:32:46.901Z,11.7
2022-11-06T12:38:37.269Z,11.7
2022-11-06T12:44:38.282Z,11.9
2022-11-06T12:50:57.640Z,11.9
2022-11-06T12:56:50.050Z,11.9
2022-11-06T13:02:42.485Z,11.8
2022-11-06T13:14:46.670Z,11.8
2022-11-06T13:20:45.307Z,11.8
2022-11-06T13:26:36.437Z,11.7
2022-11-06T13:32:29.448Z,11.6
2022-11-06T13:38:19.725Z,11.6
2022-11-06T13:44:26.322Z,11.6
2022-11-06T13:50:21.572Z,11.6
2022-11-06T13:56:12.898Z,11.5
2022-11-06T14:02:06.190Z,11.5
2022-11-06T14:08:00.110Z,11.4
2022-11-06T14:13:51.283Z,11.4
2022-11-06T14:19:47.712Z,11.3
2022-11-06T14:25:44.445Z,11.3
2022-11-06T14:31:34.239Z,11.2
2022-11-06T14:37:29.807Z,11.1
2022-11-06T14:43:19.455Z,11.1
2022-11-06T14:49:09.722Z,11.1
2022-11-06T14:55:03.611Z,11
2022-11-06T15:00:56.063Z,11
2022-11-06T15:06:46.852Z,11
2022-11-06T15:12:37.689Z,10.9
2022-11-06T15:18:28.080Z,11
2022-11-06T15:24:18.942Z,10.8
2022-11-06T15:30:09.771Z,10.8
2022-11-06T15:36:00.681Z,10.7
2022-11-06T15:41:52.602Z,10.7
2022-11-06T15:47:47.514Z,10.7
2022-11-06T15:59:43.395Z,10.5
2022-11-06T16:05:41.159Z,10.4
2022-11-06T16:11:34.776Z,10.4
2022-11-06T16:17:25.256Z,10.2
2022-11-06T16:23:17.229Z,10.2
2022-11-06T16:35:40.521Z,10
2022-11-06T16:59:43.557Z,9.9
2022-11-06T17:05:33.852Z,9.8
2022-11-06T17:11:22.878Z,9.7
2022-11-06T17:17:16.013Z,9.8
2022-11-06T17:23:28.339Z,9.6
2022-11-06T17:30:08.295Z,9.7
2022-11-06T17:36:26.068Z,9.6
2022-11-06T17:42:19.905Z,9.6
2022-11-06T17:48:12.603Z,9.6
2022-11-06T17:54:04.268Z,9.6
2022-11-06T17:59:56.393Z,9.6
2022-11-06T18:05:48.073Z,9.5
2022-11-06T18:11:48.064Z,9.5
2022-11-06T18:17:44.732Z,9.5
2022-11-06T18:23:37.521Z,9.5
2022-11-06T18:29:28.513Z,9.5
2022-11-06T18:35:19.689Z,9.5
2022-11-06T18:41:16.752Z,9.5
2022-11-06T18:47:07.959Z,9.5
2022-11-06T18:53:01.531Z,9.5
2022-11-06T18:58:51.868Z,9.5
2022-11-06T19:04:40.653Z,9.6
2022-11-06T19:10:30.156Z,9.5
2022-11-06T19:36:20.568Z,9.6
2022-11-06T20:34:21.184Z,10
2022-11-06T21:40:00.552Z,10.1
2022-11-06T21:46:02.961Z,10.2
2022-11-06T21:52:00.707Z,10.2
2022-11-06T21:57:57.824Z,10.2
2022-11-06T22:10:02.889Z,10.2
2022-11-06T22:16:07.332Z,10.2
2022-11-06T22:21:57.259Z,10.1
2022-11-06T22:27:52.613Z,10.2
2022-11-06T22:33:46.898Z,10.2
2022-11-06T22:39:43.555Z,10.2
2022-11-06T22:45:59.831Z,10.3
2022-11-06T22:51:52.952Z,10.2
2022-11-06T22:57:44.175Z,10.1
2022-11-06T23:03:35.646Z,10.1
2022-11-06T23:09:27.938Z,10.1
2022-11-06T23:15:20.308Z,10.1
2022-11-06T23:21:12.471Z,10.1
2022-11-06T23:27:04.290Z,10.1
2022-11-06T23:32:56.504Z,10.1
2022-11-06T23:38:48.859Z,10.1
2022-11-06T23:44:43.662Z,10.2
2022-11-06T23:50:35.106Z,10.2
2022-11-06T23:56:29.837Z,10.2
